sensor_id;sensor_type;location;lat;lon;timestamp;P1;durP1;ratioP1;P2;durP2;ratioP2
7027;SDS011;3555;53.248;10.336;2024-03-02T00:00:48;26.13;;;15.67;;
7027;SDS011;3555;53.248;10.336;2024-03-02T00:03:16;24.13;;;14.57;;
7027;SDS011;3555;53.248;10.336;2024-03-02T00:05:44;23.67;;;14.10;;
7027;SDS011;3555;53.248;10.336;2024-03-02T00:08:16;24.13;;;14.30;;
7027;SDS011;3555;53.248;10.336;2024-03-02T00:10:49;22.23;;;13.90;;
7027;SDS011;3555;53.248;10.336;2024-03-02T00:13:16;25.10;;;15.03;;
7027;SDS011;3555;53.248;10.336;2024-03-02T00:15:47;23.73;;;14.93;;
7027;SDS011;3555;53.248;10.336;2024-03-02T00:18:19;31.23;;;16.17;;
7027;SDS011;3555;53.248;10.336;2024-03-02T00:20:49;25.07;;;15.03;;
7027;SDS011;3555;53.248;10.336;2024-03-02T00:23:20;27.63;;;16.00;;
7027;SDS011;3555;53.248;10.336;2024-03-02T00:25:48;26.63;;;16.80;;
7027;SDS011;3555;53.248;10.336;2024-03-02T00:28:19;30.63;;;16.70;;
7027;SDS011;3555;53.248;10.336;2024-03-02T00:30:57;30.77;;;17.67;;
7027;SDS011;3555;53.248;10.336;2024-03-02T00:33:30;29.03;;;17.30;;
7027;SDS011;3555;53.248;10.336;2024-03-02T00:35:59;28.93;;;17.37;;
7027;SDS011;3555;53.248;10.336;2024-03-02T00:38:27;27.77;;;16.43;;
7027;SDS011;3555;53.248;10.336;2024-03-02T00:40:54;26.20;;;17.23;;
7027;SDS011;3555;53.248;10.336;2024-03-02T00:46:15;28.33;;;17.60;;
7027;SDS011;3555;53.248;10.336;2024-03-02T00:48:48;29.10;;;17.13;;
7027;SDS011;3555;53.248;10.336;2024-03-02T00:51:20;30.77;;;17.80;;
7027;SDS011;3555;53.248;10.336;2024-03-02T00:53:48;31.47;;;17.53;;
7027;SDS011;3555;53.248;10.336;2024-03-02T00:56:16;33.23;;;18.83;;
7027;SDS011;3555;53.248;10.336;2024-03-02T00:58:43;30.67;;;17.20;;
7027;SDS011;3555;53.248;10.336;2024-03-02T01:01:10;30.37;;;18.30;;
7027;SDS011;3555;53.248;10.336;2024-03-02T01:03:37;34.53;;;17.70;;
7027;SDS011;3555;53.248;10.336;2024-03-02T01:06:04;29.10;;;18.30;;
7027;SDS011;3555;53.248;10.336;2024-03-02T01:08:33;27.70;;;17.00;;
7027;SDS011;3555;53.248;10.336;2024-03-02T01:11:00;31.47;;;18.83;;
7027;SDS011;3555;53.248;10.336;2024-03-02T01:13:27;29.83;;;18.00;;
7027;SDS011;3555;53.248;10.336;2024-03-02T01:15:54;32.10;;;18.03;;
7027;SDS011;3555;53.248;10.336;2024-03-02T01:18:21;28.73;;;17.03;;
7027;SDS011;3555;53.248;10.336;2024-03-02T01:20:48;29.63;;;16.67;;
7027;SDS011;3555;53.248;10.336;2024-03-02T01:23:16;29.03;;;17.80;;
7027;SDS011;3555;53.248;10.336;2024-03-02T01:25:45;30.17;;;18.50;;
7027;SDS011;3555;53.248;10.336;2024-03-02T01:28:12;30.67;;;17.07;;
7027;SDS011;3555;53.248;10.336;2024-03-02T01:30:39;30.17;;;18.53;;
7027;SDS011;3555;53.248;10.336;2024-03-02T01:33:06;31.33;;;17.47;;
7027;SDS011;3555;53.248;10.336;2024-03-02T01:35:33;30.63;;;17.67;;
7027;SDS011;3555;53.248;10.336;2024-03-02T01:38:00;30.40;;;17.93;;
7027;SDS011;3555;53.248;10.336;2024-03-02T01:40:27;28.93;;;17.90;;
7027;SDS011;3555;53.248;10.336;2024-03-02T01:42:56;32.93;;;18.80;;
7027;SDS011;3555;53.248;10.336;2024-03-02T01:45:23;35.10;;;18.37;;
7027;SDS011;3555;53.248;10.336;2024-03-02T01:47:50;29.80;;;17.63;;
7027;SDS011;3555;53.248;10.336;2024-03-02T01:50:23;28.60;;;17.77;;
7027;SDS011;3555;53.248;10.336;2024-03-02T01:52:52;32.77;;;17.83;;
7027;SDS011;3555;53.248;10.336;2024-03-02T01:55:19;31.77;;;18.40;;
7027;SDS011;3555;53.248;10.336;2024-03-02T01:57:46;32.60;;;17.60;;
7027;SDS011;3555;53.248;10.336;2024-03-02T02:00:15;30.40;;;18.00;;
7027;SDS011;3555;53.248;10.336;2024-03-02T02:02:42;31.43;;;17.77;;
7027;SDS011;3555;53.248;10.336;2024-03-02T02:05:09;33.57;;;18.77;;
7027;SDS011;3555;53.248;10.336;2024-03-02T02:07:36;31.80;;;16.97;;
7027;SDS011;3555;53.248;10.336;2024-03-02T02:10:03;28.53;;;17.13;;
7027;SDS011;3555;53.248;10.336;2024-03-02T02:12:31;31.67;;;17.33;;
7027;SDS011;3555;53.248;10.336;2024-03-02T02:14:58;33.20;;;17.47;;
7027;SDS011;3555;53.248;10.336;2024-03-02T02:17:26;28.87;;;17.70;;
7027;SDS011;3555;53.248;10.336;2024-03-02T02:19:53;29.67;;;18.53;;
7027;SDS011;3555;53.248;10.336;2024-03-02T02:22:22;29.93;;;18.10;;
7027;SDS011;3555;53.248;10.336;2024-03-02T02:24:49;34.20;;;18.40;;
7027;SDS011;3555;53.248;10.336;2024-03-02T02:27:16;27.97;;;17.47;;
7027;SDS011;3555;53.248;10.336;2024-03-02T02:29:42;28.57;;;17.60;;
7027;SDS011;3555;53.248;10.336;2024-03-02T02:32:09;30.23;;;16.90;;
7027;SDS011;3555;53.248;10.336;2024-03-02T02:34:36;35.13;;;18.73;;
7027;SDS011;3555;53.248;10.336;2024-03-02T02:37:03;36.27;;;18.53;;
7027;SDS011;3555;53.248;10.336;2024-03-02T02:39:31;28.03;;;17.63;;
7027;SDS011;3555;53.248;10.336;2024-03-02T02:41:58;35.20;;;19.50;;
7027;SDS011;3555;53.248;10.336;2024-03-02T02:44:26;32.87;;;18.67;;
7027;SDS011;3555;53.248;10.336;2024-03-02T02:46:52;28.27;;;17.43;;
7027;SDS011;3555;53.248;10.336;2024-03-02T02:49:19;33.60;;;18.90;;
7027;SDS011;3555;53.248;10.336;2024-03-02T02:51:46;35.10;;;19.33;;
7027;SDS011;3555;53.248;10.336;2024-03-02T02:54:13;27.30;;;17.63;;
7027;SDS011;3555;53.248;10.336;2024-03-02T02:56:41;35.03;;;19.20;;
7027;SDS011;3555;53.248;10.336;2024-03-02T02:59:08;32.40;;;18.93;;
7027;SDS011;3555;53.248;10.336;2024-03-02T03:01:35;33.00;;;17.77;;
7027;SDS011;3555;53.248;10.336;2024-03-02T03:04:01;34.17;;;19.20;;
7027;SDS011;3555;53.248;10.336;2024-03-02T03:06:28;30.97;;;18.50;;
7027;SDS011;3555;53.248;10.336;2024-03-02T03:08:55;34.63;;;17.80;;
7027;SDS011;3555;53.248;10.336;2024-03-02T03:11:22;31.30;;;18.47;;
7027;SDS011;3555;53.248;10.336;2024-03-02T03:13:52;32.20;;;19.53;;
7027;SDS011;3555;53.248;10.336;2024-03-02T03:16:20;34.03;;;18.53;;
7027;SDS011;3555;53.248;10.336;2024-03-02T03:18:47;32.00;;;17.60;;
7027;SDS011;3555;53.248;10.336;2024-03-02T03:21:16;32.67;;;19.37;;
7027;SDS011;3555;53.248;10.336;2024-03-02T03:23:43;32.37;;;19.50;;
7027;SDS011;3555;53.248;10.336;2024-03-02T03:26:10;31.37;;;17.87;;
7027;SDS011;3555;53.248;10.336;2024-03-02T03:28:37;33.27;;;18.87;;
7027;SDS011;3555;53.248;10.336;2024-03-02T03:31:05;31.97;;;17.80;;
7027;SDS011;3555;53.248;10.336;2024-03-02T03:33:32;33.57;;;19.53;;
7027;SDS011;3555;53.248;10.336;2024-03-02T03:35:59;32.70;;;18.20;;
7027;SDS011;3555;53.248;10.336;2024-03-02T03:38:28;32.73;;;18.53;;
7027;SDS011;3555;53.248;10.336;2024-03-02T03:40:55;30.37;;;17.73;;
7027;SDS011;3555;53.248;10.336;2024-03-02T03:43:22;31.63;;;18.03;;
7027;SDS011;3555;53.248;10.336;2024-03-02T03:45:48;30.23;;;17.50;;
7027;SDS011;3555;53.248;10.336;2024-03-02T03:48:17;33.37;;;18.90;;
7027;SDS011;3555;53.248;10.336;2024-03-02T03:50:43;34.87;;;17.73;;
7027;SDS011;3555;53.248;10.336;2024-03-02T03:53:10;31.97;;;18.50;;
7027;SDS011;3555;53.248;10.336;2024-03-02T03:55:37;34.87;;;18.70;;
7027;SDS011;3555;53.248;10.336;2024-03-02T03:58:04;32.37;;;18.90;;
7027;SDS011;3555;53.248;10.336;2024-03-02T04:00:31;33.00;;;18.17;;
7027;SDS011;3555;53.248;10.336;2024-03-02T04:02:57;30.07;;;18.63;;
7027;SDS011;3555;53.248;10.336;2024-03-02T04:05:26;33.60;;;19.20;;
7027;SDS011;3555;53.248;10.336;2024-03-02T04:07:52;31.20;;;18.30;;
7027;SDS011;3555;53.248;10.336;2024-03-02T04:10:19;28.80;;;17.87;;
7027;SDS011;3555;53.248;10.336;2024-03-02T04:12:46;33.30;;;18.97;;
7027;SDS011;3555;53.248;10.336;2024-03-02T04:15:13;35.20;;;18.67;;
7027;SDS011;3555;53.248;10.336;2024-03-02T04:17:40;36.20;;;19.00;;
7027;SDS011;3555;53.248;10.336;2024-03-02T04:20:07;30.47;;;18.63;;
7027;SDS011;3555;53.248;10.336;2024-03-02T04:22:36;36.47;;;19.07;;
7027;SDS011;3555;53.248;10.336;2024-03-02T04:25:02;32.27;;;17.97;;
7027;SDS011;3555;53.248;10.336;2024-03-02T04:27:32;32.93;;;19.67;;
7027;SDS011;3555;53.248;10.336;2024-03-02T04:29:59;34.67;;;18.63;;
7027;SDS011;3555;53.248;10.336;2024-03-02T04:32:26;31.87;;;18.63;;
7027;SDS011;3555;53.248;10.336;2024-03-02T04:34:53;30.83;;;18.60;;
7027;SDS011;3555;53.248;10.336;2024-03-02T04:37:20;31.37;;;17.27;;
7027;SDS011;3555;53.248;10.336;2024-03-02T04:39:48;33.47;;;18.73;;
7027;SDS011;3555;53.248;10.336;2024-03-02T04:42:15;33.90;;;18.90;;
7027;SDS011;3555;53.248;10.336;2024-03-02T04:44:42;31.97;;;16.63;;
7027;SDS011;3555;53.248;10.336;2024-03-02T04:47:08;30.03;;;17.93;;
7027;SDS011;3555;53.248;10.336;2024-03-02T04:49:35;31.17;;;17.43;;
7027;SDS011;3555;53.248;10.336;2024-03-02T04:52:02;31.80;;;16.80;;
7027;SDS011;3555;53.248;10.336;2024-03-02T04:54:30;27.57;;;16.87;;
7027;SDS011;3555;53.248;10.336;2024-03-02T04:56:58;26.63;;;16.43;;
7027;SDS011;3555;53.248;10.336;2024-03-02T04:59:25;29.03;;;16.83;;
7027;SDS011;3555;53.248;10.336;2024-03-02T05:01:51;25.23;;;15.73;;
7027;SDS011;3555;53.248;10.336;2024-03-02T05:04:18;27.83;;;16.37;;
7027;SDS011;3555;53.248;10.336;2024-03-02T05:06:45;29.07;;;16.63;;
7027;SDS011;3555;53.248;10.336;2024-03-02T05:09:17;29.83;;;17.53;;
7027;SDS011;3555;53.248;10.336;2024-03-02T05:11:44;32.13;;;18.63;;
7027;SDS011;3555;53.248;10.336;2024-03-02T05:14:36;28.87;;;16.80;;
7027;SDS011;3555;53.248;10.336;2024-03-02T05:17:03;29.63;;;16.70;;
7027;SDS011;3555;53.248;10.336;2024-03-02T05:19:30;29.47;;;16.77;;
7027;SDS011;3555;53.248;10.336;2024-03-02T05:21:57;29.53;;;17.00;;
7027;SDS011;3555;53.248;10.336;2024-03-02T05:24:24;28.70;;;17.50;;
7027;SDS011;3555;53.248;10.336;2024-03-02T05:26:53;30.03;;;16.97;;
7027;SDS011;3555;53.248;10.336;2024-03-02T05:29:20;28.93;;;17.13;;
7027;SDS011;3555;53.248;10.336;2024-03-02T05:31:48;31.77;;;17.80;;
7027;SDS011;3555;53.248;10.336;2024-03-02T05:34:15;29.77;;;17.60;;
7027;SDS011;3555;53.248;10.336;2024-03-02T05:36:42;28.57;;;16.00;;
7027;SDS011;3555;53.248;10.336;2024-03-02T05:39:08;27.83;;;16.87;;
7027;SDS011;3555;53.248;10.336;2024-03-02T05:41:35;28.53;;;16.50;;
7027;SDS011;3555;53.248;10.336;2024-03-02T05:44:03;27.63;;;16.33;;
7027;SDS011;3555;53.248;10.336;2024-03-02T05:46:30;29.17;;;17.80;;
7027;SDS011;3555;53.248;10.336;2024-03-02T05:48:58;29.60;;;16.90;;
7027;SDS011;3555;53.248;10.336;2024-03-02T05:51:25;30.43;;;15.93;;
7027;SDS011;3555;53.248;10.336;2024-03-02T05:53:52;28.10;;;16.77;;
7027;SDS011;3555;53.248;10.336;2024-03-02T05:56:19;27.97;;;17.30;;
7027;SDS011;3555;53.248;10.336;2024-03-02T05:58:46;26.37;;;16.33;;
7027;SDS011;3555;53.248;10.336;2024-03-02T06:01:22;29.80;;;17.53;;
7027;SDS011;3555;53.248;10.336;2024-03-02T06:03:53;28.43;;;16.60;;
7027;SDS011;3555;53.248;10.336;2024-03-02T06:06:22;26.70;;;17.17;;
7027;SDS011;3555;53.248;10.336;2024-03-02T06:08:49;31.77;;;18.50;;
7027;SDS011;3555;53.248;10.336;2024-03-02T06:11:16;29.37;;;16.63;;
7027;SDS011;3555;53.248;10.336;2024-03-02T06:13:43;34.03;;;17.57;;
7027;SDS011;3555;53.248;10.336;2024-03-02T06:16:10;33.37;;;18.43;;
7027;SDS011;3555;53.248;10.336;2024-03-02T06:18:36;28.30;;;17.07;;
7027;SDS011;3555;53.248;10.336;2024-03-02T06:21:04;30.57;;;18.47;;
7027;SDS011;3555;53.248;10.336;2024-03-02T06:23:32;28.87;;;18.17;;
7027;SDS011;3555;53.248;10.336;2024-03-02T06:25:59;33.60;;;18.40;;
7027;SDS011;3555;53.248;10.336;2024-03-02T06:28:27;36.00;;;19.57;;
7027;SDS011;3555;53.248;10.336;2024-03-02T06:30:54;32.17;;;17.87;;
7027;SDS011;3555;53.248;10.336;2024-03-02T06:33:21;33.67;;;19.10;;
7027;SDS011;3555;53.248;10.336;2024-03-02T06:35:47;27.40;;;18.30;;
7027;SDS011;3555;53.248;10.336;2024-03-02T06:38:15;32.00;;;18.37;;
7027;SDS011;3555;53.248;10.336;2024-03-02T06:40:43;31.83;;;19.57;;
7027;SDS011;3555;53.248;10.336;2024-03-02T06:43:10;30.83;;;19.03;;
7027;SDS011;3555;53.248;10.336;2024-03-02T06:45:37;30.97;;;18.67;;
7027;SDS011;3555;53.248;10.336;2024-03-02T06:48:04;35.50;;;19.80;;
7027;SDS011;3555;53.248;10.336;2024-03-02T06:50:31;33.90;;;19.33;;
7027;SDS011;3555;53.248;10.336;2024-03-02T06:52:58;31.37;;;20.17;;
7027;SDS011;3555;53.248;10.336;2024-03-02T06:55:25;31.47;;;18.40;;
7027;SDS011;3555;53.248;10.336;2024-03-02T06:57:53;32.90;;;18.87;;
7027;SDS011;3555;53.248;10.336;2024-03-02T07:00:20;30.93;;;18.33;;
7027;SDS011;3555;53.248;10.336;2024-03-02T07:02:47;34.57;;;20.50;;
7027;SDS011;3555;53.248;10.336;2024-03-02T07:05:14;33.10;;;18.10;;
7027;SDS011;3555;53.248;10.336;2024-03-02T07:07:41;33.47;;;18.33;;
7027;SDS011;3555;53.248;10.336;2024-03-02T07:10:08;32.13;;;18.60;;
7027;SDS011;3555;53.248;10.336;2024-03-02T07:12:35;31.70;;;19.83;;
7027;SDS011;3555;53.248;10.336;2024-03-02T07:15:04;29.77;;;18.83;;
7027;SDS011;3555;53.248;10.336;2024-03-02T07:17:50;34.87;;;18.07;;
7027;SDS011;3555;53.248;10.336;2024-03-02T07:20:16;29.73;;;19.20;;
7027;SDS011;3555;53.248;10.336;2024-03-02T07:22:43;32.57;;;18.73;;
7027;SDS011;3555;53.248;10.336;2024-03-02T07:25:10;29.47;;;18.70;;
7027;SDS011;3555;53.248;10.336;2024-03-02T07:27:37;36.10;;;20.17;;
7027;SDS011;3555;53.248;10.336;2024-03-02T07:30:06;34.40;;;19.27;;
7027;SDS011;3555;53.248;10.336;2024-03-02T07:32:34;32.73;;;18.00;;
7027;SDS011;3555;53.248;10.336;2024-03-02T07:35:00;31.00;;;18.27;;
7027;SDS011;3555;53.248;10.336;2024-03-02T07:37:28;31.17;;;18.43;;
7027;SDS011;3555;53.248;10.336;2024-03-02T07:39:55;33.87;;;20.23;;
7027;SDS011;3555;53.248;10.336;2024-03-02T07:42:22;32.10;;;18.40;;
7027;SDS011;3555;53.248;10.336;2024-03-02T07:44:49;33.93;;;19.30;;
7027;SDS011;3555;53.248;10.336;2024-03-02T07:47:17;30.27;;;17.73;;
7027;SDS011;3555;53.248;10.336;2024-03-02T07:49:44;30.23;;;18.87;;
7027;SDS011;3555;53.248;10.336;2024-03-02T07:52:12;34.47;;;19.07;;
7027;SDS011;3555;53.248;10.336;2024-03-02T07:54:39;32.20;;;18.70;;
7027;SDS011;3555;53.248;10.336;2024-03-02T07:57:05;31.67;;;19.57;;
7027;SDS011;3555;53.248;10.336;2024-03-02T07:59:33;30.67;;;18.00;;
7027;SDS011;3555;53.248;10.336;2024-03-02T08:02:01;26.77;;;16.80;;
7027;SDS011;3555;53.248;10.336;2024-03-02T08:04:30;30.70;;;18.20;;
7027;SDS011;3555;53.248;10.336;2024-03-02T08:06:57;25.70;;;16.80;;
7027;SDS011;3555;53.248;10.336;2024-03-02T08:09:24;26.47;;;17.17;;
7027;SDS011;3555;53.248;10.336;2024-03-02T08:11:51;26.97;;;16.67;;
7027;SDS011;3555;53.248;10.336;2024-03-02T08:14:17;26.63;;;16.67;;
7027;SDS011;3555;53.248;10.336;2024-03-02T08:16:44;31.70;;;16.80;;
7027;SDS011;3555;53.248;10.336;2024-03-02T08:19:12;24.63;;;15.87;;
7027;SDS011;3555;53.248;10.336;2024-03-02T08:21:40;29.33;;;15.70;;
7027;SDS011;3555;53.248;10.336;2024-03-02T08:24:07;26.50;;;15.80;;
7027;SDS011;3555;53.248;10.336;2024-03-02T08:26:34;24.07;;;15.43;;
7027;SDS011;3555;53.248;10.336;2024-03-02T08:29:01;22.30;;;14.60;;
7027;SDS011;3555;53.248;10.336;2024-03-02T08:31:28;23.43;;;14.80;;
7027;SDS011;3555;53.248;10.336;2024-03-02T08:33:55;25.07;;;15.97;;
7027;SDS011;3555;53.248;10.336;2024-03-02T08:36:23;21.60;;;13.93;;
7027;SDS011;3555;53.248;10.336;2024-03-02T08:38:52;22.37;;;13.17;;
7027;SDS011;3555;53.248;10.336;2024-03-02T08:41:19;19.27;;;13.03;;
7027;SDS011;3555;53.248;10.336;2024-03-02T08:43:45;19.97;;;12.50;;
7027;SDS011;3555;53.248;10.336;2024-03-02T08:46:12;19.33;;;12.07;;
7027;SDS011;3555;53.248;10.336;2024-03-02T08:48:39;19.33;;;12.97;;
7027;SDS011;3555;53.248;10.336;2024-03-02T08:51:06;20.13;;;13.70;;
7027;SDS011;3555;53.248;10.336;2024-03-02T08:53:33;18.70;;;12.73;;
7027;SDS011;3555;53.248;10.336;2024-03-02T08:56:02;18.70;;;12.77;;
7027;SDS011;3555;53.248;10.336;2024-03-02T08:58:30;17.97;;;12.00;;
7027;SDS011;3555;53.248;10.336;2024-03-02T09:00:57;18.23;;;11.77;;
7027;SDS011;3555;53.248;10.336;2024-03-02T09:03:24;17.97;;;11.43;;
7027;SDS011;3555;53.248;10.336;2024-03-02T09:05:51;18.13;;;11.27;;
7027;SDS011;3555;53.248;10.336;2024-03-02T09:08:18;16.83;;;11.17;;
7027;SDS011;3555;53.248;10.336;2024-03-02T09:10:45;19.20;;;11.43;;
7027;SDS011;3555;53.248;10.336;2024-03-02T09:13:13;16.93;;;10.90;;
7027;SDS011;3555;53.248;10.336;2024-03-02T09:15:40;17.93;;;12.30;;
7027;SDS011;3555;53.248;10.336;2024-03-02T09:18:07;16.23;;;11.50;;
7027;SDS011;3555;53.248;10.336;2024-03-02T09:20:34;16.80;;;11.27;;
7027;SDS011;3555;53.248;10.336;2024-03-02T09:23:01;14.93;;;10.13;;
7027;SDS011;3555;53.248;10.336;2024-03-02T09:25:28;12.98;;;9.80;;
7027;SDS011;3555;53.248;10.336;2024-03-02T09:27:54;16.10;;;10.80;;
7027;SDS011;3555;53.248;10.336;2024-03-02T09:30:23;14.93;;;9.75;;
7027;SDS011;3555;53.248;10.336;2024-03-02T09:32:50;12.27;;;9.07;;
7027;SDS011;3555;53.248;10.336;2024-03-02T09:35:16;13.63;;;8.68;;
7027;SDS011;3555;53.248;10.336;2024-03-02T09:37:43;13.23;;;8.88;;
7027;SDS011;3555;53.248;10.336;2024-03-02T09:40:10;13.02;;;9.38;;
7027;SDS011;3555;53.248;10.336;2024-03-02T09:42:37;12.07;;;8.70;;
7027;SDS011;3555;53.248;10.336;2024-03-02T09:45:05;12.93;;;8.63;;
7027;SDS011;3555;53.248;10.336;2024-03-02T09:47:34;13.48;;;8.20;;
7027;SDS011;3555;53.248;10.336;2024-03-02T09:50:01;11.90;;;7.80;;
7027;SDS011;3555;53.248;10.336;2024-03-02T09:52:28;12.55;;;8.40;;
7027;SDS011;3555;53.248;10.336;2024-03-02T09:54:57;12.38;;;8.85;;
7027;SDS011;3555;53.248;10.336;2024-03-02T09:57:24;11.43;;;8.02;;
7027;SDS011;3555;53.248;10.336;2024-03-02T09:59:51;9.60;;;7.22;;
7027;SDS011;3555;53.248;10.336;2024-03-02T10:02:17;10.18;;;7.07;;
7027;SDS011;3555;53.248;10.336;2024-03-02T10:04:45;11.63;;;8.07;;
7027;SDS011;3555;53.248;10.336;2024-03-02T10:07:16;9.68;;;6.95;;
7027;SDS011;3555;53.248;10.336;2024-03-02T10:09:44;10.70;;;7.53;;
7027;SDS011;3555;53.248;10.336;2024-03-02T10:12:13;9.07;;;6.57;;
7027;SDS011;3555;53.248;10.336;2024-03-02T10:14:41;11.48;;;7.88;;
7027;SDS011;3555;53.248;10.336;2024-03-02T10:17:09;11.00;;;7.53;;
7027;SDS011;3555;53.248;10.336;2024-03-02T10:19:37;10.25;;;7.55;;
7027;SDS011;3555;53.248;10.336;2024-03-02T10:22:07;11.57;;;7.45;;
7027;SDS011;3555;53.248;10.336;2024-03-02T10:24:35;10.77;;;7.50;;
7027;SDS011;3555;53.248;10.336;2024-03-02T10:27:06;11.73;;;7.13;;
7027;SDS011;3555;53.248;10.336;2024-03-02T10:29:36;8.38;;;6.15;;
7027;SDS011;3555;53.248;10.336;2024-03-02T10:32:04;11.23;;;7.43;;
7027;SDS011;3555;53.248;10.336;2024-03-02T10:34:32;10.50;;;6.97;;
7027;SDS011;3555;53.248;10.336;2024-03-02T10:36:59;11.60;;;7.63;;
7027;SDS011;3555;53.248;10.336;2024-03-02T10:39:27;10.20;;;7.25;;
7027;SDS011;3555;53.248;10.336;2024-03-02T10:41:57;14.63;;;9.23;;
7027;SDS011;3555;53.248;10.336;2024-03-02T10:44:28;13.60;;;8.82;;
7027;SDS011;3555;53.248;10.336;2024-03-02T10:46:56;12.82;;;9.25;;
7027;SDS011;3555;53.248;10.336;2024-03-02T10:49:26;12.80;;;8.13;;
7027;SDS011;3555;53.248;10.336;2024-03-02T10:51:53;13.70;;;9.10;;
7027;SDS011;3555;53.248;10.336;2024-03-02T10:54:20;13.68;;;9.07;;
7027;SDS011;3555;53.248;10.336;2024-03-02T10:56:53;13.35;;;9.73;;
7027;SDS011;3555;53.248;10.336;2024-03-02T10:59:24;17.23;;;10.43;;
7027;SDS011;3555;53.248;10.336;2024-03-02T11:01:55;13.57;;;9.38;;
7027;SDS011;3555;53.248;10.336;2024-03-02T11:04:24;14.50;;;9.10;;
7027;SDS011;3555;53.248;10.336;2024-03-02T11:06:52;12.90;;;8.73;;
7027;SDS011;3555;53.248;10.336;2024-03-02T11:09:25;14.20;;;9.75;;
7027;SDS011;3555;53.248;10.336;2024-03-02T11:11:56;11.75;;;7.68;;
7027;SDS011;3555;53.248;10.336;2024-03-02T11:14:30;11.30;;;8.38;;
7027;SDS011;3555;53.248;10.336;2024-03-02T11:16:59;13.27;;;8.65;;
7027;SDS011;3555;53.248;10.336;2024-03-02T11:19:28;13.23;;;9.30;;
7027;SDS011;3555;53.248;10.336;2024-03-02T11:21:56;12.23;;;8.73;;
7027;SDS011;3555;53.248;10.336;2024-03-02T11:24:31;15.20;;;9.32;;
7027;SDS011;3555;53.248;10.336;2024-03-02T11:27:03;14.35;;;9.18;;
7027;SDS011;3555;53.248;10.336;2024-03-02T11:29:44;13.20;;;9.13;;
7027;SDS011;3555;53.248;10.336;2024-03-02T11:32:14;13.48;;;8.68;;
7027;SDS011;3555;53.248;10.336;2024-03-02T11:34:43;13.98;;;10.10;;
7027;SDS011;3555;53.248;10.336;2024-03-02T11:37:12;11.90;;;8.38;;
7027;SDS011;3555;53.248;10.336;2024-03-02T11:39:40;13.25;;;8.93;;
7027;SDS011;3555;53.248;10.336;2024-03-02T11:42:09;12.45;;;8.73;;
7027;SDS011;3555;53.248;10.336;2024-03-02T11:44:39;10.55;;;8.60;;
7027;SDS011;3555;53.248;10.336;2024-03-02T11:47:08;14.90;;;9.13;;
7027;SDS011;3555;53.248;10.336;2024-03-02T11:49:39;15.23;;;9.48;;
7027;SDS011;3555;53.248;10.336;2024-03-02T11:52:08;15.48;;;8.95;;
7027;SDS011;3555;53.248;10.336;2024-03-02T11:54:36;13.77;;;9.07;;
7027;SDS011;3555;53.248;10.336;2024-03-02T11:57:04;14.48;;;9.13;;
7027;SDS011;3555;53.248;10.336;2024-03-02T11:59:33;13.00;;;8.75;;
7027;SDS011;3555;53.248;10.336;2024-03-02T12:02:00;12.60;;;9.45;;
7027;SDS011;3555;53.248;10.336;2024-03-02T12:04:28;11.77;;;8.15;;
7027;SDS011;3555;53.248;10.336;2024-03-02T12:06:56;11.00;;;7.70;;
7027;SDS011;3555;53.248;10.336;2024-03-02T12:09:25;11.50;;;8.10;;
7027;SDS011;3555;53.248;10.336;2024-03-02T12:12:02;11.27;;;8.32;;
7027;SDS011;3555;53.248;10.336;2024-03-02T12:14:30;12.35;;;8.85;;
7027;SDS011;3555;53.248;10.336;2024-03-02T12:16:58;11.38;;;8.10;;
7027;SDS011;3555;53.248;10.336;2024-03-02T12:19:25;14.27;;;9.27;;
7027;SDS011;3555;53.248;10.336;2024-03-02T12:21:54;11.35;;;7.40;;
7027;SDS011;3555;53.248;10.336;2024-03-02T12:24:22;10.27;;;7.30;;
7027;SDS011;3555;53.248;10.336;2024-03-02T12:26:49;11.23;;;8.90;;
7027;SDS011;3555;53.248;10.336;2024-03-02T12:29:17;12.77;;;8.35;;
7027;SDS011;3555;53.248;10.336;2024-03-02T12:31:45;9.35;;;7.35;;
7027;SDS011;3555;53.248;10.336;2024-03-02T12:34:15;9.90;;;6.75;;
7027;SDS011;3555;53.248;10.336;2024-03-02T12:36:43;8.95;;;6.07;;
7027;SDS011;3555;53.248;10.336;2024-03-02T12:39:12;8.38;;;5.95;;
7027;SDS011;3555;53.248;10.336;2024-03-02T12:41:40;10.15;;;5.75;;
7027;SDS011;3555;53.248;10.336;2024-03-02T12:44:07;8.45;;;5.72;;
7027;SDS011;3555;53.248;10.336;2024-03-02T12:46:34;8.55;;;5.82;;
7027;SDS011;3555;53.248;10.336;2024-03-02T12:49:05;9.55;;;6.03;;
7027;SDS011;3555;53.248;10.336;2024-03-02T12:51:36;8.88;;;6.20;;
7027;SDS011;3555;53.248;10.336;2024-03-02T12:54:05;9.77;;;6.45;;
7027;SDS011;3555;53.248;10.336;2024-03-02T12:56:32;8.35;;;5.43;;
7027;SDS011;3555;53.248;10.336;2024-03-02T12:58:59;8.05;;;5.85;;
7027;SDS011;3555;53.248;10.336;2024-03-02T13:01:26;6.95;;;5.70;;
7027;SDS011;3555;53.248;10.336;2024-03-02T13:03:53;8.93;;;6.43;;
7027;SDS011;3555;53.248;10.336;2024-03-02T13:06:22;8.48;;;6.13;;
7027;SDS011;3555;53.248;10.336;2024-03-02T13:08:53;10.15;;;5.97;;
7027;SDS011;3555;53.248;10.336;2024-03-02T13:11:21;7.90;;;5.93;;
7027;SDS011;3555;53.248;10.336;2024-03-02T13:13:49;8.23;;;5.55;;
7027;SDS011;3555;53.248;10.336;2024-03-02T13:16:16;9.85;;;5.50;;
7027;SDS011;3555;53.248;10.336;2024-03-02T13:18:45;10.00;;;6.30;;
7027;SDS011;3555;53.248;10.336;2024-03-02T13:21:12;8.40;;;5.68;;
7027;SDS011;3555;53.248;10.336;2024-03-02T13:23:39;7.38;;;5.45;;
7027;SDS011;3555;53.248;10.336;2024-03-02T13:26:07;8.13;;;5.68;;
7027;SDS011;3555;53.248;10.336;2024-03-02T13:28:35;6.68;;;4.93;;
7027;SDS011;3555;53.248;10.336;2024-03-02T13:31:03;12.85;;;6.40;;
7027;SDS011;3555;53.248;10.336;2024-03-02T13:33:31;8.43;;;4.85;;
7027;SDS011;3555;53.248;10.336;2024-03-02T13:35:58;7.90;;;4.97;;
7027;SDS011;3555;53.248;10.336;2024-03-02T13:38:24;8.32;;;5.93;;
7027;SDS011;3555;53.248;10.336;2024-03-02T13:40:51;8.65;;;5.72;;
7027;SDS011;3555;53.248;10.336;2024-03-02T13:43:19;10.70;;;5.97;;
7027;SDS011;3555;53.248;10.336;2024-03-02T13:45:47;7.28;;;5.70;;
7027;SDS011;3555;53.248;10.336;2024-03-02T13:48:14;8.15;;;5.88;;
7027;SDS011;3555;53.248;10.336;2024-03-02T13:50:41;9.50;;;6.38;;
7027;SDS011;3555;53.248;10.336;2024-03-02T13:53:08;10.57;;;6.80;;
7027;SDS011;3555;53.248;10.336;2024-03-02T13:55:34;10.95;;;7.47;;
7027;SDS011;3555;53.248;10.336;2024-03-02T13:58:01;11.23;;;8.07;;
7027;SDS011;3555;53.248;10.336;2024-03-02T14:00:30;13.85;;;8.52;;
7027;SDS011;3555;53.248;10.336;2024-03-02T14:02:57;10.43;;;7.32;;
7027;SDS011;3555;53.248;10.336;2024-03-02T14:05:24;12.48;;;7.43;;
7027;SDS011;3555;53.248;10.336;2024-03-02T14:07:50;13.30;;;8.23;;
7027;SDS011;3555;53.248;10.336;2024-03-02T14:10:17;11.32;;;7.20;;
7027;SDS011;3555;53.248;10.336;2024-03-02T14:12:47;11.32;;;8.07;;
7027;SDS011;3555;53.248;10.336;2024-03-02T14:15:14;13.23;;;7.22;;
7027;SDS011;3555;53.248;10.336;2024-03-02T14:17:42;14.20;;;7.70;;
7027;SDS011;3555;53.248;10.336;2024-03-02T14:20:09;9.85;;;7.43;;
7027;SDS011;3555;53.248;10.336;2024-03-02T14:22:37;11.55;;;7.22;;
7027;SDS011;3555;53.248;10.336;2024-03-02T14:25:04;10.18;;;7.10;;
7027;SDS011;3555;53.248;10.336;2024-03-02T14:27:31;8.82;;;6.40;;
7027;SDS011;3555;53.248;10.336;2024-03-02T14:29:59;10.20;;;6.60;;
7027;SDS011;3555;53.248;10.336;2024-03-02T14:32:25;9.70;;;6.50;;
7027;SDS011;3555;53.248;10.336;2024-03-02T14:34:54;9.73;;;6.68;;
7027;SDS011;3555;53.248;10.336;2024-03-02T14:37:20;9.98;;;6.18;;
7027;SDS011;3555;53.248;10.336;2024-03-02T14:39:47;11.75;;;6.90;;
7027;SDS011;3555;53.248;10.336;2024-03-02T14:42:15;9.18;;;6.05;;
7027;SDS011;3555;53.248;10.336;2024-03-02T14:44:42;9.95;;;6.47;;
7027;SDS011;3555;53.248;10.336;2024-03-02T14:47:09;10.32;;;6.65;;